sensor_id;sensor_type;location;lat;lon;timestamp;P1;durP1;ratioP1;P2;durP2;ratioP2
60641;SDS011;46837;52.446;-1.930;2022-12-29T00:00:07;15.30;;;4.48;;
60641;SDS011;46837;52.446;-1.930;2022-12-29T00:01:07;23.94;;;3.24;;
60641;SDS011;46837;52.446;-1.930;2022-12-29T00:02:07;11.78;;;2.72;;
60641;SDS011;46837;52.446;-1.930;2022-12-29T00:03:07;12.94;;;2.44;;
60641;SDS011;46837;52.446;-1.930;2022-12-29T00:04:07;16.88;;;3.04;;
60641;SDS011;46837;52.446;-1.930;2022-12-29T00:05:07;21.10;;;3.98;;
60641;SDS011;46837;52.446;-1.930;2022-12-29T00:06:07;16.30;;;2.70;;
60641;SDS011;46837;52.446;-1.930;2022-12-29T00:07:07;28.50;;;3.58;;
60641;SDS011;46837;52.446;-1.930;2022-12-29T00:08:07;21.16;;;3.30;;
60641;SDS011;46837;52.446;-1.930;2022-12-29T00:09:07;21.54;;;2.44;;
60641;SDS011;46837;52.446;-1.930;2022-12-29T00:10:07;21.40;;;4.34;;
60641;SDS011;46837;52.446;-1.930;2022-12-29T00:11:07;17.64;;;2.28;;
60641;SDS011;46837;52.446;-1.930;2022-12-29T00:12:07;22.10;;;3.20;;
60641;SDS011;46837;52.446;-1.930;2022-12-29T00:13:11;16.50;;;2.64;;
60641;SDS011;46837;52.446;-1.930;2022-12-29T00:14:11;22.22;;;3.26;;
60641;SDS011;46837;52.446;-1.930;2022-12-29T00:15:11;15.76;;;3.00;;
60641;SDS011;46837;52.446;-1.930;2022-12-29T00:16:07;20.44;;;4.46;;
60641;SDS011;46837;52.446;-1.930;2022-12-29T00:17:07;26.48;;;3.46;;
60641;SDS011;46837;52.446;-1.930;2022-12-29T00:18:07;16.76;;;2.76;;
60641;SDS011;46837;52.446;-1.930;2022-12-29T00:19:07;24.52;;;4.62;;
60641;SDS011;46837;52.446;-1.930;2022-12-29T00:20:11;15.98;;;3.28;;
60641;SDS011;46837;52.446;-1.930;2022-12-29T00:21:14;21.30;;;3.34;;
60641;SDS011;46837;52.446;-1.930;2022-12-29T00:22:11;21.46;;;4.74;;
60641;SDS011;46837;52.446;-1.930;2022-12-29T00:23:11;26.98;;;4.72;;
60641;SDS011;46837;52.446;-1.930;2022-12-29T00:24:15;25.86;;;3.94;;
60641;SDS011;46837;52.446;-1.930;2022-12-29T00:25:11;16.94;;;3.76;;
60641;SDS011;46837;52.446;-1.930;2022-12-29T00:26:12;20.06;;;4.42;;
60641;SDS011;46837;52.446;-1.930;2022-12-29T00:27:11;29.78;;;5.72;;
60641;SDS011;46837;52.446;-1.930;2022-12-29T00:28:11;21.64;;;3.26;;
60641;SDS011;46837;52.446;-1.930;2022-12-29T00:29:11;26.20;;;4.12;;
60641;SDS011;46837;52.446;-1.930;2022-12-29T00:30:11;19.12;;;3.60;;
60641;SDS011;46837;52.446;-1.930;2022-12-29T00:31:11;26.70;;;4.06;;
60641;SDS011;46837;52.446;-1.930;2022-12-29T00:32:11;25.08;;;5.12;;
60641;SDS011;46837;52.446;-1.930;2022-12-29T00:33:11;26.40;;;4.98;;
60641;SDS011;46837;52.446;-1.930;2022-12-29T00:34:11;30.04;;;4.10;;
60641;SDS011;46837;52.446;-1.930;2022-12-29T00:35:10;17.84;;;3.60;;
60641;SDS011;46837;52.446;-1.930;2022-12-29T00:36:08;21.86;;;3.68;;
60641;SDS011;46837;52.446;-1.930;2022-12-29T00:37:07;34.02;;;5.24;;
60641;SDS011;46837;52.446;-1.930;2022-12-29T00:38:11;20.52;;;4.08;;
60641;SDS011;46837;52.446;-1.930;2022-12-29T00:39:14;21.04;;;3.32;;
60641;SDS011;46837;52.446;-1.930;2022-12-29T00:40:11;17.96;;;2.76;;
60641;SDS011;46837;52.446;-1.930;2022-12-29T00:41:11;18.76;;;2.96;;
60641;SDS011;46837;52.446;-1.930;2022-12-29T00:42:11;18.68;;;3.04;;
60641;SDS011;46837;52.446;-1.930;2022-12-29T00:43:11;20.12;;;3.90;;
60641;SDS011;46837;52.446;-1.930;2022-12-29T00:44:07;20.40;;;3.60;;
60641;SDS011;46837;52.446;-1.930;2022-12-29T00:45:07;16.96;;;4.56;;
60641;SDS011;46837;52.446;-1.930;2022-12-29T00:46:07;16.34;;;3.36;;
60641;SDS011;46837;52.446;-1.930;2022-12-29T00:47:07;15.58;;;4.22;;
60641;SDS011;46837;52.446;-1.930;2022-12-29T00:48:07;18.48;;;2.32;;
60641;SDS011;46837;52.446;-1.930;2022-12-29T00:49:11;17.18;;;2.66;;
60641;SDS011;46837;52.446;-1.930;2022-12-29T00:50:07;17.48;;;2.76;;
60641;SDS011;46837;52.446;-1.930;2022-12-29T00:51:07;17.82;;;2.64;;
60641;SDS011;46837;52.446;-1.930;2022-12-29T00:52:08;18.44;;;3.18;;
60641;SDS011;46837;52.446;-1.930;2022-12-29T00:53:07;16.10;;;2.28;;
60641;SDS011;46837;52.446;-1.930;2022-12-29T00:54:07;23.50;;;2.64;;
60641;SDS011;46837;52.446;-1.930;2022-12-29T00:55:07;14.04;;;2.78;;
60641;SDS011;46837;52.446;-1.930;2022-12-29T00:56:07;24.24;;;3.74;;
60641;SDS011;46837;52.446;-1.930;2022-12-29T00:57:07;28.92;;;4.00;;
60641;SDS011;46837;52.446;-1.930;2022-12-29T00:58:07;20.56;;;4.08;;
60641;SDS011;46837;52.446;-1.930;2022-12-29T00:59:08;28.48;;;3.84;;
60641;SDS011;46837;52.446;-1.930;2022-12-29T01:00:07;23.00;;;4.28;;
60641;SDS011;46837;52.446;-1.930;2022-12-29T01:01:07;32.04;;;4.30;;
60641;SDS011;46837;52.446;-1.930;2022-12-29T01:02:07;25.46;;;4.94;;
60641;SDS011;46837;52.446;-1.930;2022-12-29T01:03:07;12.30;;;3.26;;
60641;SDS011;46837;52.446;-1.930;2022-12-29T01:04:07;26.84;;;5.38;;
60641;SDS011;46837;52.446;-1.930;2022-12-29T01:05:07;28.60;;;4.24;;
60641;SDS011;46837;52.446;-1.930;2022-12-29T01:06:07;26.82;;;3.60;;
60641;SDS011;46837;52.446;-1.930;2022-12-29T01:07:07;30.68;;;3.92;;
60641;SDS011;46837;52.446;-1.930;2022-12-29T01:08:07;32.06;;;4.90;;
60641;SDS011;46837;52.446;-1.930;2022-12-29T01:09:11;27.46;;;4.90;;
60641;SDS011;46837;52.446;-1.930;2022-12-29T01:10:11;15.86;;;3.18;;
60641;SDS011;46837;52.446;-1.930;2022-12-29T01:11:11;23.36;;;4.36;;
60641;SDS011;46837;52.446;-1.930;2022-12-29T01:12:07;32.32;;;6.12;;
60641;SDS011;46837;52.446;-1.930;2022-12-29T01:13:07;30.28;;;4.42;;
60641;SDS011;46837;52.446;-1.930;2022-12-29T01:14:07;25.46;;;4.88;;
60641;SDS011;46837;52.446;-1.930;2022-12-29T01:15:08;37.42;;;4.76;;
60641;SDS011;46837;52.446;-1.930;2022-12-29T01:16:07;31.96;;;4.30;;
60641;SDS011;46837;52.446;-1.930;2022-12-29T01:17:07;28.10;;;4.72;;
60641;SDS011;46837;52.446;-1.930;2022-12-29T01:18:07;30.26;;;5.02;;
60641;SDS011;46837;52.446;-1.930;2022-12-29T01:19:07;32.08;;;4.66;;
60641;SDS011;46837;52.446;-1.930;2022-12-29T01:20:07;21.64;;;4.66;;
60641;SDS011;46837;52.446;-1.930;2022-12-29T01:21:07;29.30;;;4.34;;
60641;SDS011;46837;52.446;-1.930;2022-12-29T01:22:07;17.18;;;2.94;;
60641;SDS011;46837;52.446;-1.930;2022-12-29T01:23:07;26.52;;;3.96;;
60641;SDS011;46837;52.446;-1.930;2022-12-29T01:24:07;29.32;;;5.70;;
60641;SDS011;46837;52.446;-1.930;2022-12-29T01:25:07;30.38;;;3.90;;
60641;SDS011;46837;52.446;-1.930;2022-12-29T01:26:14;30.08;;;4.66;;
60641;SDS011;46837;52.446;-1.930;2022-12-29T01:27:07;47.06;;;5.86;;
60641;SDS011;46837;52.446;-1.930;2022-12-29T01:28:07;26.32;;;5.06;;
60641;SDS011;46837;52.446;-1.930;2022-12-29T01:29:07;22.00;;;4.68;;
60641;SDS011;46837;52.446;-1.930;2022-12-29T01:30:07;30.34;;;5.24;;
60641;SDS011;46837;52.446;-1.930;2022-12-29T01:31:10;23.42;;;4.16;;
60641;SDS011;46837;52.446;-1.930;2022-12-29T01:32:07;37.68;;;4.80;;
60641;SDS011;46837;52.446;-1.930;2022-12-29T01:33:07;29.50;;;5.08;;
60641;SDS011;46837;52.446;-1.930;2022-12-29T01:34:07;27.52;;;4.42;;
60641;SDS011;46837;52.446;-1.930;2022-12-29T01:35:07;33.08;;;5.86;;
60641;SDS011;46837;52.446;-1.930;2022-12-29T01:36:08;34.44;;;6.56;;
60641;SDS011;46837;52.446;-1.930;2022-12-29T01:37:07;24.24;;;4.12;;
60641;SDS011;46837;52.446;-1.930;2022-12-29T01:38:07;25.04;;;4.98;;
60641;SDS011;46837;52.446;-1.930;2022-12-29T01:39:07;28.06;;;6.62;;
60641;SDS011;46837;52.446;-1.930;2022-12-29T01:40:07;32.44;;;4.66;;
60641;SDS011;46837;52.446;-1.930;2022-12-29T01:41:07;27.58;;;4.94;;
60641;SDS011;46837;52.446;-1.930;2022-12-29T01:42:11;28.02;;;5.54;;
60641;SDS011;46837;52.446;-1.930;2022-12-29T01:43:08;28.74;;;4.36;;
60641;SDS011;46837;52.446;-1.930;2022-12-29T01:45:10;46.28;;;5.38;;
60641;SDS011;46837;52.446;-1.930;2022-12-29T01:47:07;28.22;;;5.42;;
60641;SDS011;46837;52.446;-1.930;2022-12-29T01:48:08;42.14;;;5.42;;
60641;SDS011;46837;52.446;-1.930;2022-12-29T01:51:07;44.30;;;6.20;;
60641;SDS011;46837;52.446;-1.930;2022-12-29T01:52:07;34.58;;;5.34;;
60641;SDS011;46837;52.446;-1.930;2022-12-29T01:53:10;30.58;;;5.90;;
60641;SDS011;46837;52.446;-1.930;2022-12-29T01:54:11;27.82;;;4.24;;
60641;SDS011;46837;52.446;-1.930;2022-12-29T01:55:07;24.36;;;4.56;;
60641;SDS011;46837;52.446;-1.930;2022-12-29T01:56:07;33.24;;;4.92;;
60641;SDS011;46837;52.446;-1.930;2022-12-29T01:57:08;30.38;;;5.54;;
60641;SDS011;46837;52.446;-1.930;2022-12-29T01:58:07;36.42;;;5.22;;
60641;SDS011;46837;52.446;-1.930;2022-12-29T01:59:10;30.08;;;5.24;;
60641;SDS011;46837;52.446;-1.930;2022-12-29T02:00:08;32.22;;;4.84;;
60641;SDS011;46837;52.446;-1.930;2022-12-29T02:01:07;24.90;;;5.02;;
60641;SDS011;46837;52.446;-1.930;2022-12-29T02:02:07;30.30;;;6.66;;
60641;SDS011;46837;52.446;-1.930;2022-12-29T02:03:07;33.76;;;4.54;;
60641;SDS011;46837;52.446;-1.930;2022-12-29T02:04:08;33.88;;;5.88;;
60641;SDS011;46837;52.446;-1.930;2022-12-29T02:05:09;29.76;;;4.80;;
60641;SDS011;46837;52.446;-1.930;2022-12-29T02:06:08;31.06;;;4.42;;
60641;SDS011;46837;52.446;-1.930;2022-12-29T02:07:08;25.30;;;4.28;;
60641;SDS011;46837;52.446;-1.930;2022-12-29T02:08:07;28.72;;;4.16;;
60641;SDS011;46837;52.446;-1.930;2022-12-29T02:09:07;28.14;;;4.36;;
60641;SDS011;46837;52.446;-1.930;2022-12-29T02:10:07;22.88;;;4.20;;
60641;SDS011;46837;52.446;-1.930;2022-12-29T02:11:07;29.34;;;4.76;;
60641;SDS011;46837;52.446;-1.930;2022-12-29T02:12:07;34.40;;;4.56;;
60641;SDS011;46837;52.446;-1.930;2022-12-29T02:13:07;22.34;;;3.72;;
60641;SDS011;46837;52.446;-1.930;2022-12-29T02:14:10;32.06;;;3.90;;
60641;SDS011;46837;52.446;-1.930;2022-12-29T02:15:07;23.84;;;4.58;;
60641;SDS011;46837;52.446;-1.930;2022-12-29T02:16:14;28.24;;;4.38;;
60641;SDS011;46837;52.446;-1.930;2022-12-29T02:17:14;31.52;;;5.00;;
60641;SDS011;46837;52.446;-1.930;2022-12-29T02:18:16;23.22;;;3.68;;
60641;SDS011;46837;52.446;-1.930;2022-12-29T02:22:12;16.44;;;2.94;;
60641;SDS011;46837;52.446;-1.930;2022-12-29T02:23:15;40.26;;;6.52;;
60641;SDS011;46837;52.446;-1.930;2022-12-29T02:27:15;23.58;;;3.64;;
60641;SDS011;46837;52.446;-1.930;2022-12-29T02:30:08;27.86;;;4.56;;
60641;SDS011;46837;52.446;-1.930;2022-12-29T02:31:10;25.98;;;3.80;;
60641;SDS011;46837;52.446;-1.930;2022-12-29T02:34:10;22.58;;;4.86;;
60641;SDS011;46837;52.446;-1.930;2022-12-29T02:36:56;25.16;;;4.12;;
60641;SDS011;46837;52.446;-1.930;2022-12-29T02:37:10;23.66;;;3.30;;
60641;SDS011;46837;52.446;-1.930;2022-12-29T02:41:08;29.74;;;3.90;;
60641;SDS011;46837;52.446;-1.930;2022-12-29T02:43:13;23.32;;;3.48;;
60641;SDS011;46837;52.446;-1.930;2022-12-29T02:47:11;17.02;;;2.60;;
60641;SDS011;46837;52.446;-1.930;2022-12-29T02:48:09;19.36;;;3.08;;
60641;SDS011;46837;52.446;-1.930;2022-12-29T02:50:08;27.10;;;4.36;;
60641;SDS011;46837;52.446;-1.930;2022-12-29T02:51:09;18.76;;;5.12;;
60641;SDS011;46837;52.446;-1.930;2022-12-29T02:52:08;23.36;;;3.22;;
60641;SDS011;46837;52.446;-1.930;2022-12-29T02:53:11;14.62;;;2.98;;
60641;SDS011;46837;52.446;-1.930;2022-12-29T02:54:11;25.92;;;3.22;;
60641;SDS011;46837;52.446;-1.930;2022-12-29T02:55:07;20.62;;;3.78;;
60641;SDS011;46837;52.446;-1.930;2022-12-29T02:56:07;17.52;;;3.26;;
60641;SDS011;46837;52.446;-1.930;2022-12-29T02:59:07;22.40;;;5.12;;
60641;SDS011;46837;52.446;-1.930;2022-12-29T03:00:10;10.70;;;2.20;;
60641;SDS011;46837;52.446;-1.930;2022-12-29T03:02:19;14.06;;;2.20;;
60641;SDS011;46837;52.446;-1.930;2022-12-29T03:06:13;20.32;;;2.40;;
60641;SDS011;46837;52.446;-1.930;2022-12-29T03:09:10;11.62;;;2.70;;
60641;SDS011;46837;52.446;-1.930;2022-12-29T03:10:14;16.90;;;3.70;;
60641;SDS011;46837;52.446;-1.930;2022-12-29T03:12:13;13.82;;;2.34;;
60641;SDS011;46837;52.446;-1.930;2022-12-29T03:15:12;11.28;;;1.76;;
60641;SDS011;46837;52.446;-1.930;2022-12-29T03:16:13;9.04;;;1.62;;
60641;SDS011;46837;52.446;-1.930;2022-12-29T03:17:14;9.78;;;2.20;;
60641;SDS011;46837;52.446;-1.930;2022-12-29T03:18:10;6.94;;;1.18;;
60641;SDS011;46837;52.446;-1.930;2022-12-29T03:19:09;9.52;;;1.14;;
60641;SDS011;46837;52.446;-1.930;2022-12-29T03:20:08;6.64;;;1.04;;
60641;SDS011;46837;52.446;-1.930;2022-12-29T03:21:11;4.80;;;0.80;;
60641;SDS011;46837;52.446;-1.930;2022-12-29T03:22:12;3.08;;;0.58;;
60641;SDS011;46837;52.446;-1.930;2022-12-29T03:23:07;5.62;;;0.98;;
60641;SDS011;46837;52.446;-1.930;2022-12-29T03:24:07;3.86;;;0.60;;
60641;SDS011;46837;52.446;-1.930;2022-12-29T03:25:11;5.70;;;0.90;;
60641;SDS011;46837;52.446;-1.930;2022-12-29T03:26:08;3.18;;;0.50;;
60641;SDS011;46837;52.446;-1.930;2022-12-29T03:27:07;2.96;;;0.66;;
60641;SDS011;46837;52.446;-1.930;2022-12-29T03:28:14;3.54;;;0.40;;
60641;SDS011;46837;52.446;-1.930;2022-12-29T03:29:07;3.44;;;0.50;;
60641;SDS011;46837;52.446;-1.930;2022-12-29T03:30:07;0.98;;;0.42;;
60641;SDS011;46837;52.446;-1.930;2022-12-29T03:31:07;1.72;;;0.60;;
60641;SDS011;46837;52.446;-1.930;2022-12-29T03:32:07;1.62;;;0.32;;
60641;SDS011;46837;52.446;-1.930;2022-12-29T03:33:10;3.38;;;0.52;;
60641;SDS011;46837;52.446;-1.930;2022-12-29T03:34:07;7.52;;;1.76;;
60641;SDS011;46837;52.446;-1.930;2022-12-29T03:35:07;1.28;;;0.58;;
60641;SDS011;46837;52.446;-1.930;2022-12-29T03:36:08;1.54;;;0.22;;
60641;SDS011;46837;52.446;-1.930;2022-12-29T03:37:11;1.16;;;0.24;;
60641;SDS011;46837;52.446;-1.930;2022-12-29T03:39:10;0.66;;;0.24;;
60641;SDS011;46837;52.446;-1.930;2022-12-29T03:40:07;1.50;;;0.32;;
60641;SDS011;46837;52.446;-1.930;2022-12-29T03:41:08;0.70;;;0.26;;
60641;SDS011;46837;52.446;-1.930;2022-12-29T03:42:11;1.06;;;0.20;;
60641;SDS011;46837;52.446;-1.930;2022-12-29T03:43:07;3.24;;;0.30;;
60641;SDS011;46837;52.446;-1.930;2022-12-29T03:44:07;0.76;;;0.26;;
60641;SDS011;46837;52.446;-1.930;2022-12-29T03:45:07;0.42;;;0.20;;
60641;SDS011;46837;52.446;-1.930;2022-12-29T03:46:07;1.42;;;0.20;;
60641;SDS011;46837;52.446;-1.930;2022-12-29T03:47:07;0.28;;;0.10;;
60641;SDS011;46837;52.446;-1.930;2022-12-29T03:48:07;0.78;;;0.18;;
60641;SDS011;46837;52.446;-1.930;2022-12-29T03:49:07;2.26;;;0.20;;
60641;SDS011;46837;52.446;-1.930;2022-12-29T03:50:07;1.50;;;0.14;;
60641;SDS011;46837;52.446;-1.930;2022-12-29T03:51:07;0.78;;;0.12;;
60641;SDS011;46837;52.446;-1.930;2022-12-29T03:52:07;1.50;;;0.38;;
60641;SDS011;46837;52.446;-1.930;2022-12-29T03:53:07;0.56;;;0.12;;
60641;SDS011;46837;52.446;-1.930;2022-12-29T03:54:07;1.76;;;0.32;;
60641;SDS011;46837;52.446;-1.930;2022-12-29T03:55:07;2.30;;;0.44;;
60641;SDS011;46837;52.446;-1.930;2022-12-29T03:56:07;2.18;;;0.44;;
60641;SDS011;46837;52.446;-1.930;2022-12-29T03:57:07;2.62;;;0.60;;
60641;SDS011;46837;52.446;-1.930;2022-12-29T03:58:07;3.98;;;0.22;;
60641;SDS011;46837;52.446;-1.930;2022-12-29T03:59:07;3.34;;;0.30;;
60641;SDS011;46837;52.446;-1.930;2022-12-29T04:00:07;2.58;;;0.28;;
60641;SDS011;46837;52.446;-1.930;2022-12-29T04:01:07;1.34;;;0.24;;
60641;SDS011;46837;52.446;-1.930;2022-12-29T04:02:07;1.60;;;0.28;;
60641;SDS011;46837;52.446;-1.930;2022-12-29T04:03:07;1.04;;;0.34;;
60641;SDS011;46837;52.446;-1.930;2022-12-29T04:04:07;0.96;;;0.40;;
60641;SDS011;46837;52.446;-1.930;2022-12-29T04:05:07;2.80;;;0.28;;
60641;SDS011;46837;52.446;-1.930;2022-12-29T04:06:07;0.26;;;0.06;;
60641;SDS011;46837;52.446;-1.930;2022-12-29T04:07:07;0.90;;;0.10;;
60641;SDS011;46837;52.446;-1.930;2022-12-29T04:08:07;1.22;;;0.44;;
60641;SDS011;46837;52.446;-1.930;2022-12-29T04:09:07;0.08;;;0.08;;
60641;SDS011;46837;52.446;-1.930;2022-12-29T04:10:07;1.82;;;0.16;;
60641;SDS011;46837;52.446;-1.930;2022-12-29T04:11:07;0.92;;;0.22;;
60641;SDS011;46837;52.446;-1.930;2022-12-29T04:12:07;1.08;;;0.26;;
60641;SDS011;46837;52.446;-1.930;2022-12-29T04:13:07;1.06;;;0.10;;
60641;SDS011;46837;52.446;-1.930;2022-12-29T04:14:07;2.54;;;0.20;;
60641;SDS011;46837;52.446;-1.930;2022-12-29T04:15:07;2.36;;;0.10;;
60641;SDS011;46837;52.446;-1.930;2022-12-29T04:16:07;1.76;;;0.10;;
60641;SDS011;46837;52.446;-1.930;2022-12-29T04:17:07;0.98;;;0.10;;
60641;SDS011;46837;52.446;-1.930;2022-12-29T04:18:07;1.22;;;0.18;;
60641;SDS011;46837;52.446;-1.930;2022-12-29T04:19:07;0.10;;;0.10;;
60641;SDS011;46837;52.446;-1.930;2022-12-29T04:20:11;3.58;;;0.32;;
60641;SDS011;46837;52.446;-1.930;2022-12-29T04:21:07;0.32;;;0.20;;
60641;SDS011;46837;52.446;-1.930;2022-12-29T04:22:07;2.00;;;0.52;;
60641;SDS011;46837;52.446;-1.930;2022-12-29T04:23:07;1.42;;;0.10;;
60641;SDS011;46837;52.446;-1.930;2022-12-29T04:24:07;2.80;;;0.24;;
60641;SDS011;46837;52.446;-1.930;2022-12-29T04:25:07;2.08;;;0.16;;
60641;SDS011;46837;52.446;-1.930;2022-12-29T04:26:07;1.90;;;0.20;;
60641;SDS011;46837;52.446;-1.930;2022-12-29T04:27:07;4.96;;;0.40;;
60641;SDS011;46837;52.446;-1.930;2022-12-29T04:28:07;1.68;;;0.30;;
60641;SDS011;46837;52.446;-1.930;2022-12-29T04:29:07;4.54;;;0.20;;
60641;SDS011;46837;52.446;-1.930;2022-12-29T04:30:07;0.80;;;0.20;;
60641;SDS011;46837;52.446;-1.930;2022-12-29T04:31:07;3.84;;;0.28;;
60641;SDS011;46837;52.446;-1.930;2022-12-29T04:32:07;4.36;;;0.72;;
60641;SDS011;46837;52.446;-1.930;2022-12-29T04:33:07;3.72;;;0.22;;
60641;SDS011;46837;52.446;-1.930;2022-12-29T04:34:07;4.92;;;0.24;;
60641;SDS011;46837;52.446;-1.930;2022-12-29T04:35:07;0.54;;;0.22;;
60641;SDS011;46837;52.446;-1.930;2022-12-29T04:36:07;1.20;;;0.28;;
60641;SDS011;46837;52.446;-1.930;2022-12-29T04:37:07;1.30;;;0.12;;
60641;SDS011;46837;52.446;-1.930;2022-12-29T04:38:07;0.42;;;0.20;;
60641;SDS011;46837;52.446;-1.930;2022-12-29T04:39:07;0.38;;;0.20;;
60641;SDS011;46837;52.446;-1.930;2022-12-29T04:40:07;6.22;;;0.20;;
60641;SDS011;46837;52.446;-1.930;2022-12-29T04:41:07;3.54;;;0.30;;
60641;SDS011;46837;52.446;-1.930;2022-12-29T04:42:07;3.72;;;0.30;;
60641;SDS011;46837;52.446;-1.930;2022-12-29T04:43:07;2.56;;;0.44;;
60641;SDS011;46837;52.446;-1.930;2022-12-29T04:44:07;0.58;;;0.20;;
60641;SDS011;46837;52.446;-1.930;2022-12-29T04:45:07;3.32;;;0.48;;
60641;SDS011;46837;52.446;-1.930;2022-12-29T04:46:07;2.14;;;0.30;;
60641;SDS011;46837;52.446;-1.930;2022-12-29T04:47:07;4.88;;;0.20;;
60641;SDS011;46837;52.446;-1.930;2022-12-29T04:48:07;2.60;;;0.22;;
60641;SDS011;46837;52.446;-1.930;2022-12-29T04:49:09;0.96;;;0.20;;
60641;SDS011;46837;52.446;-1.930;2022-12-29T04:50:07;0.86;;;0.20;;
60641;SDS011;46837;52.446;-1.930;2022-12-29T04:51:07;2.74;;;0.32;;
60641;SDS011;46837;52.446;-1.930;2022-12-29T04:52:07;3.32;;;0.32;;
60641;SDS011;46837;52.446;-1.930;2022-12-29T04:53:07;0.58;;;0.10;;
60641;SDS011;46837;52.446;-1.930;2022-12-29T04:54:07;2.34;;;0.30;;
60641;SDS011;46837;52.446;-1.930;2022-12-29T04:55:07;4.04;;;0.90;;
60641;SDS011;46837;52.446;-1.930;2022-12-29T04:56:07;2.20;;;0.28;;
60641;SDS011;46837;52.446;-1.930;2022-12-29T04:57:07;1.42;;;0.16;;
60641;SDS011;46837;52.446;-1.930;2022-12-29T04:58:07;0.70;;;0.18;;
60641;SDS011;46837;52.446;-1.930;2022-12-29T04:59:07;0.72;;;0.20;;
60641;SDS011;46837;52.446;-1.930;2022-12-29T05:00:07;6.84;;;1.00;;
60641;SDS011;46837;52.446;-1.930;2022-12-29T05:01:07;3.10;;;0.26;;
60641;SDS011;46837;52.446;-1.930;2022-12-29T05:02:07;3.50;;;0.32;;
60641;SDS011;46837;52.446;-1.930;2022-12-29T05:03:07;0.98;;;0.16;;
60641;SDS011;46837;52.446;-1.930;2022-12-29T05:04:07;2.62;;;0.66;;
60641;SDS011;46837;52.446;-1.930;2022-12-29T05:05:07;1.04;;;0.38;;
60641;SDS011;46837;52.446;-1.930;2022-12-29T05:06:07;4.68;;;0.36;;
60641;SDS011;46837;52.446;-1.930;2022-12-29T05:07:07;3.06;;;0.50;;
60641;SDS011;46837;52.446;-1.930;2022-12-29T05:08:07;2.12;;;0.36;;
60641;SDS011;46837;52.446;-1.930;2022-12-29T05:09:07;1.24;;;0.40;;
60641;SDS011;46837;52.446;-1.930;2022-12-29T05:10:07;2.58;;;0.38;;
60641;SDS011;46837;52.446;-1.930;2022-12-29T05:11:07;3.08;;;0.34;;
60641;SDS011;46837;52.446;-1.930;2022-12-29T05:12:07;3.24;;;0.20;;
60641;SDS011;46837;52.446;-1.930;2022-12-29T05:13:07;4.02;;;0.46;;
60641;SDS011;46837;52.446;-1.930;2022-12-29T05:14:07;0.98;;;0.34;;
60641;SDS011;46837;52.446;-1.930;2022-12-29T05:15:07;3.36;;;0.30;;
60641;SDS011;46837;52.446;-1.930;2022-12-29T05:16:07;1.36;;;0.20;;
60641;SDS011;46837;52.446;-1.930;2022-12-29T05:17:07;3.38;;;0.32;;
60641;SDS011;46837;52.446;-1.930;2022-12-29T05:18:07;5.56;;;0.40;;
60641;SDS011;46837;52.446;-1.930;2022-12-29T05:19:07;6.20;;;0.30;;
60641;SDS011;46837;52.446;-1.930;2022-12-29T05:20:07;1.18;;;0.20;;
60641;SDS011;46837;52.446;-1.930;2022-12-29T05:21:07;1.50;;;0.40;;
60641;SDS011;46837;52.446;-1.930;2022-12-29T05:22:07;3.86;;;0.30;;
60641;SDS011;46837;52.446;-1.930;2022-12-29T05:23:07;1.46;;;0.46;;
60641;SDS011;46837;52.446;-1.930;2022-12-29T05:24:07;1.46;;;0.54;;
60641;SDS011;46837;52.446;-1.930;2022-12-29T05:25:07;3.30;;;0.72;;
60641;SDS011;46837;52.446;-1.930;2022-12-29T05:26:07;0.10;;;0.10;;
60641;SDS011;46837;52.446;-1.930;2022-12-29T05:27:07;2.16;;;0.32;;
60641;SDS011;46837;52.446;-1.930;2022-12-29T05:28:07;5.44;;;0.42;;
60641;SDS011;46837;52.446;-1.930;2022-12-29T05:29:07;1.36;;;0.20;;
60641;SDS011;46837;52.446;-1.930;2022-12-29T05:30:07;2.38;;;0.30;;
60641;SDS011;46837;52.446;-1.930;2022-12-29T05:31:07;4.24;;;0.68;;
60641;SDS011;46837;52.446;-1.930;2022-12-29T05:32:07;3.28;;;0.26;;
60641;SDS011;46837;52.446;-1.930;2022-12-29T05:33:07;2.34;;;1.40;;
60641;SDS011;46837;52.446;-1.930;2022-12-29T05:34:07;2.86;;;0.48;;
60641;SDS011;46837;52.446;-1.930;2022-12-29T05:35:07;0.86;;;0.24;;
60641;SDS011;46837;52.446;-1.930;2022-12-29T05:36:07;1.86;;;0.74;;
60641;SDS011;46837;52.446;-1.930;2022-12-29T05:37:07;1.32;;;0.20;;
60641;SDS011;46837;52.446;-1.930;2022-12-29T05:38:07;3.06;;;0.46;;
60641;SDS011;46837;52.446;-1.930;2022-12-29T05:39:07;1.82;;;0.38;;
60641;SDS011;46837;52.446;-1.930;2022-12-29T05:40:07;5.34;;;0.62;;
60641;SDS011;46837;52.446;-1.930;2022-12-29T05:41:07;2.72;;;0.26;;
60641;SDS011;46837;52.446;-1.930;2022-12-29T05:42:07;2.26;;;0.20;;
60641;SDS011;46837;52.446;-1.930;2022-12-29T05:43:07;3.48;;;0.36;;
60641;SDS011;46837;52.446;-1.930;2022-12-29T05:44:07;5.36;;;0.40;;
60641;SDS011;46837;52.446;-1.930;2022-12-29T05:45:08;3.42;;;0.90;;
60641;SDS011;46837;52.446;-1.930;2022-12-29T05:46:07;3.60;;;0.38;;
60641;SDS011;46837;52.446;-1.930;2022-12-29T05:47:07;3.46;;;0.42;;
60641;SDS011;46837;52.446;-1.930;2022-12-29T05:48:07;3.10;;;0.58;;
60641;SDS011;46837;52.446;-1.930;2022-12-29T05:49:07;1.68;;;0.30;;
60641;SDS011;46837;52.446;-1.930;2022-12-29T05:50:07;2.00;;;0.40;;
60641;SDS011;46837;52.446;-1.930;2022-12-29T05:51:07;4.30;;;0.50;;
60641;SDS011;46837;52.446;-1.930;2022-12-29T05:52:07;1.86;;;0.30;;
60641;SDS011;46837;52.446;-1.930;2022-12-29T05:53:07;1.48;;;0.30;;
60641;SDS011;46837;52.446;-1.930;2022-12-29T05:54:07;3.74;;;0.48;;
60641;SDS011;46837;52.446;-1.930;2022-12-29T05:55:07;2.36;;;0.44;;
60641;SDS011;46837;52.446;-1.930;2022-12-29T05:56:07;6.30;;;0.52;;
60641;SDS011;46837;52.446;-1.930;2022-12-29T05:57:07;3.82;;;0.42;;
60641;SDS011;46837;52.446;-1.930;2022-12-29T05:58:07;2.44;;;0.50;;
60641;SDS011;46837;52.446;-1.930;2022-12-29T05:59:07;4.16;;;0.32;;
60641;SDS011;46837;52.446;-1.930;2022-12-29T06:00:07;2.98;;;0.88;;
60641;SDS011;46837;52.446;-1.930;2022-12-29T06:01:07;3.98;;;0.60;;
60641;SDS011;46837;52.446;-1.930;2022-12-29T06:02:07;4.34;;;0.40;;
60641;SDS011;46837;52.446;-1.930;2022-12-29T06:03:07;3.20;;;0.38;;
60641;SDS011;46837;52.446;-1.930;2022-12-29T06:04:07;5.22;;;0.68;;
60641;SDS011;46837;52.446;-1.930;2022-12-29T06:05:07;3.36;;;0.48;;
60641;SDS011;46837;52.446;-1.930;2022-12-29T06:06:07;4.66;;;0.68;;
60641;SDS011;46837;52.446;-1.930;2022-12-29T06:07:07;2.38;;;0.40;;
60641;SDS011;46837;52.446;-1.930;2022-12-29T06:08:07;3.38;;;0.38;;
60641;SDS011;46837;52.446;-1.930;2022-12-29T06:09:09;1.72;;;0.64;;
60641;SDS011;46837;52.446;-1.930;2022-12-29T06:10:07;2.42;;;0.50;;
60641;SDS011;46837;52.446;-1.930;2022-12-29T06:11:07;2.74;;;0.78;;
60641;SDS011;46837;52.446;-1.930;2022-12-29T06:12:07;3.10;;;0.44;;
60641;SDS011;46837;52.446;-1.930;2022-12-29T06:13:07;4.30;;;0.74;;
60641;SDS011;46837;52.446;-1.930;2022-12-29T06:14:07;4.40;;;0.40;;
60641;SDS011;46837;52.446;-1.930;2022-12-29T06:15:07;3.78;;;0.56;;
60641;SDS011;46837;52.446;-1.930;2022-12-29T06:16:07;1.90;;;0.30;;
60641;SDS011;46837;52.446;-1.930;2022-12-29T06:17:07;2.96;;;0.36;;
60641;SDS011;46837;52.446;-1.930;2022-12-29T06:18:07;2.20;;;0.50;;
60641;SDS011;46837;52.446;-1.930;2022-12-29T06:19:07;1.46;;;0.48;;
60641;SDS011;46837;52.446;-1.930;2022-12-29T06:20:07;3.70;;;0.46;;
60641;SDS011;46837;52.446;-1.930;2022-12-29T06:21:07;1.10;;;0.40;;
60641;SDS011;46837;52.446;-1.930;2022-12-29T06:22:07;3.68;;;0.58;;
60641;SDS011;46837;52.446;-1.930;2022-12-29T06:23:07;5.74;;;0.64;;
60641;SDS011;46837;52.446;-1.930;2022-12-29T06:24:07;1.74;;;0.34;;
60641;SDS011;46837;52.446;-1.930;2022-12-29T06:25:07;3.28;;;0.36;;
60641;SDS011;46837;52.446;-1.930;2022-12-29T06:26:07;3.66;;;0.82;;
60641;SDS011;46837;52.446;-1.930;2022-12-29T06:27:07;2.26;;;0.48;;
60641;SDS011;46837;52.446;-1.930;2022-12-29T06:28:07;3.50;;;0.68;;